Fly Creek, New York
Current Conditions -  °F | °C
As of 6:15 AM on Sunday 23 Nov 2014 (Local Time) from KNY0 Reporting Station
Overcast Overcast  
Wind Chill: 33°   Ceiling: 2300
Heat Index: 37°   Visibility: 10mi
Dew Point: 34°   Wind: 6mph
Humidity: 89%   Direction: 240°WSW
Pressure: 30.05"   Gusts: NA
Location:  42.72°N, 74.98°W
Report Text: KNY0 231115Z AUTO 24005KT 10SM OVC023 03/01 A3005 RMK AO2 T00300013
Loading
Personal Weather Stations






























Interactive Weather Map New forecast layout! Learn more

10-Day Weather Forecast

Advertisements
Track Severe Weather on mobile